createdAt,value
2022-08-22T00:00:51.578Z,15.13
2022-08-22T00:01:52.426Z,15.13
2022-08-22T00:02:43.756Z,16.33
2022-08-22T00:02:47.979Z,18.29
2022-08-22T00:02:58.750Z,15.76
2022-08-22T00:03:10.808Z,15.35
2022-08-22T00:03:17.512Z,15.13
2022-08-22T00:03:52.548Z,15.13
2022-08-22T00:04:51.539Z,15.13
2022-08-22T00:05:51.527Z,15.13
2022-08-22T00:06:51.520Z,15.14
2022-08-22T00:07:51.501Z,15.10
2022-08-22T00:08:51.503Z,15.09
2022-08-22T00:09:51.479Z,15.06
2022-08-22T00:10:51.891Z,15.07
2022-08-22T00:11:51.462Z,15.07
2022-08-22T00:12:51.452Z,15.06
2022-08-22T00:14:01.305Z,15.06
2022-08-22T00:14:53.227Z,15.03
2022-08-22T00:15:51.473Z,15.03
2022-08-22T00:16:51.415Z,15.03
2022-08-22T00:17:51.394Z,15.02
2022-08-22T00:18:52.202Z,15.01
2022-08-22T00:19:52.184Z,14.99
2022-08-22T00:20:51.364Z,14.98
2022-08-22T00:21:51.345Z,14.96
2022-08-22T00:22:51.353Z,14.96
2022-08-22T00:23:52.136Z,14.96
2022-08-22T00:24:51.820Z,14.96
2022-08-22T00:25:51.336Z,14.98
2022-08-22T00:26:51.308Z,14.99
2022-08-22T00:27:52.086Z,15.01
2022-08-22T00:28:52.088Z,14.99
2022-08-22T00:29:51.265Z,15.01
2022-08-22T00:30:51.258Z,15.01
2022-08-22T00:31:51.246Z,15.01
2022-08-22T00:32:52.046Z,14.98
2022-08-22T00:33:51.223Z,15.01
2022-08-22T00:34:51.210Z,15.01
2022-08-22T00:35:51.200Z,14.99
2022-08-22T00:36:51.211Z,14.98
2022-08-22T00:37:51.178Z,14.98
2022-08-22T00:38:51.170Z,14.98
2022-08-22T00:39:51.255Z,14.96
2022-08-22T00:40:51.152Z,14.98
2022-08-22T00:41:51.943Z,15.01
2022-08-22T00:42:51.130Z,15.03
2022-08-22T00:43:51.110Z,15.07
2022-08-22T00:44:51.110Z,15.09
2022-08-22T00:45:51.084Z,15.11
2022-08-22T00:46:51.899Z,15.11
2022-08-22T00:47:51.063Z,15.14
2022-08-22T00:48:51.153Z,15.16
2022-08-22T00:49:51.057Z,15.17
2022-08-22T00:50:51.864Z,15.19
2022-08-22T00:51:51.834Z,15.20
2022-08-22T00:52:51.024Z,15.20
2022-08-22T00:53:51.005Z,15.17
2022-08-22T00:54:50.995Z,15.17
2022-08-22T00:55:51.289Z,15.17
2022-08-22T00:56:51.787Z,15.19
2022-08-22T00:57:50.967Z,15.20
2022-08-22T00:58:50.954Z,15.17
2022-08-22T00:59:51.157Z,15.16
2022-08-22T01:00:51.794Z,15.11
2022-08-22T01:01:50.908Z,15.11
2022-08-22T01:02:52.678Z,15.09
2022-08-22T01:03:50.888Z,15.09
2022-08-22T01:04:51.707Z,15.06
2022-08-22T01:05:51.688Z,15.03
2022-08-22T01:06:50.879Z,15.02
2022-08-22T01:07:50.849Z,14.99
2022-08-22T01:08:51.037Z,14.98
2022-08-22T01:09:51.641Z,14.95
2022-08-22T01:10:50.828Z,14.96
2022-08-22T01:11:50.813Z,14.92
2022-08-22T01:12:50.802Z,14.89
2022-08-22T01:13:50.792Z,14.92
2022-08-22T01:14:51.571Z,14.88
2022-08-22T01:15:50.761Z,14.88
2022-08-22T01:16:50.762Z,14.88
2022-08-22T01:17:50.733Z,14.86
2022-08-22T01:18:50.765Z,14.88
2022-08-22T01:19:50.733Z,14.84
2022-08-22T01:20:50.714Z,14.84
2022-08-22T01:21:50.694Z,14.84
2022-08-22T01:22:50.692Z,14.88
2022-08-22T01:23:50.674Z,14.86
2022-08-22T01:24:50.674Z,14.86
2022-08-22T01:25:50.895Z,14.86
2022-08-22T01:26:50.645Z,14.88
2022-08-22T01:27:50.632Z,14.86
2022-08-22T01:28:50.636Z,14.83
2022-08-22T01:29:50.624Z,14.84
2022-08-22T01:30:50.605Z,14.83
2022-08-22T01:31:50.816Z,14.81
2022-08-22T01:32:50.578Z,14.78
2022-08-22T01:33:51.588Z,14.78
2022-08-22T01:34:50.559Z,14.78
2022-08-22T01:35:50.547Z,14.78
2022-08-22T01:36:50.537Z,14.78
2022-08-22T01:37:50.519Z,14.80
2022-08-22T01:38:50.510Z,14.78
2022-08-22T01:39:50.649Z,14.81
2022-08-22T01:40:53.789Z,14.80
2022-08-22T01:41:50.489Z,14.80
2022-08-22T01:42:50.471Z,14.77
2022-08-22T01:43:59.846Z,14.78
2022-08-22T01:44:51.761Z,14.80
2022-08-22T01:45:50.443Z,14.81
2022-08-22T01:46:50.431Z,14.83
2022-08-22T01:47:50.408Z,14.88
2022-08-22T01:48:50.403Z,14.89
2022-08-22T01:49:50.403Z,14.92
2022-08-22T01:50:50.384Z,14.94
2022-08-22T01:51:50.372Z,14.94
2022-08-22T01:52:50.364Z,14.95
2022-08-22T01:53:50.453Z,14.96
2022-08-22T01:54:51.162Z,14.96
2022-08-22T01:55:50.345Z,14.96
2022-08-22T01:56:50.314Z,14.98
2022-08-22T01:57:50.295Z,14.99
2022-08-22T01:58:50.305Z,14.98
2022-08-22T01:59:51.077Z,14.98
2022-08-22T02:00:50.290Z,15.01
2022-08-22T02:01:50.256Z,14.98
2022-08-22T02:02:50.257Z,15.01
2022-08-22T02:03:51.053Z,14.99
2022-08-22T02:04:51.047Z,14.99
2022-08-22T02:05:50.215Z,14.99
2022-08-22T02:06:50.206Z,14.99
2022-08-22T02:07:50.238Z,14.98
2022-08-22T02:08:50.219Z,14.98
2022-08-22T02:09:50.178Z,14.98
2022-08-22T02:10:50.190Z,14.98
2022-08-22T02:11:50.147Z,14.96
2022-08-22T02:12:50.952Z,14.95
2022-08-22T02:13:50.891Z,14.92
2022-08-22T02:14:50.120Z,14.95
2022-08-22T02:15:50.108Z,14.92
2022-08-22T02:16:50.336Z,14.92
2022-08-22T02:17:50.902Z,14.91
2022-08-22T02:18:50.080Z,14.92
2022-08-22T02:19:50.061Z,14.89
2022-08-22T02:20:50.532Z,14.89
2022-08-22T02:21:50.413Z,14.88
2022-08-22T02:22:50.042Z,14.86
2022-08-22T02:23:50.018Z,14.86
2022-08-22T02:24:50.012Z,14.88
2022-08-22T02:25:50.004Z,14.88
2022-08-22T02:26:50.015Z,14.86
2022-08-22T02:27:49.973Z,14.84
2022-08-22T02:28:57.433Z,14.83
2022-08-22T02:29:50.966Z,14.81
2022-08-22T02:30:49.945Z,14.83
2022-08-22T02:31:49.928Z,14.80
2022-08-22T02:32:49.930Z,14.80
2022-08-22T02:33:49.907Z,14.77
2022-08-22T02:34:49.915Z,14.75
2022-08-22T02:35:49.888Z,14.78
2022-08-22T02:36:49.890Z,14.77
2022-08-22T02:37:50.678Z,14.77
2022-08-22T02:38:49.877Z,14.77
2022-08-22T02:39:49.932Z,14.78
2022-08-22T02:40:49.848Z,14.77
2022-08-22T02:41:49.839Z,14.78
2022-08-22T02:42:49.819Z,14.78
2022-08-22T02:43:49.806Z,14.77
2022-08-22T02:44:49.799Z,14.77
2022-08-22T02:45:49.779Z,14.77
2022-08-22T02:46:49.779Z,14.77
2022-08-22T02:47:49.860Z,14.78
2022-08-22T02:48:49.753Z,14.77
2022-08-22T02:49:49.759Z,14.77
2022-08-22T02:50:49.731Z,14.78
2022-08-22T02:51:49.712Z,14.77
2022-08-22T02:52:49.711Z,14.75
2022-08-22T02:53:49.708Z,14.75
2022-08-22T02:54:49.694Z,14.73
2022-08-22T02:55:49.670Z,14.73
2022-08-22T02:56:49.664Z,14.70
2022-08-22T02:57:49.674Z,14.70
2022-08-22T02:58:49.676Z,14.70
2022-08-22T02:59:49.636Z,14.68
2022-08-22T03:00:49.683Z,14.69
2022-08-22T03:01:49.606Z,14.65
2022-08-22T03:02:49.605Z,14.68
2022-08-22T03:03:49.583Z,14.65
2022-08-22T03:04:49.662Z,14.65
2022-08-22T03:05:49.566Z,14.65
2022-08-22T03:06:49.556Z,14.65
2022-08-22T03:07:49.557Z,14.65
2022-08-22T03:08:51.031Z,14.64
2022-08-22T03:09:49.530Z,14.65
2022-08-22T03:10:49.519Z,14.64
2022-08-22T03:11:49.509Z,14.68
2022-08-22T03:12:52.732Z,14.65
2022-08-22T03:13:49.478Z,14.65
2022-08-22T03:14:49.469Z,14.68
2022-08-22T03:15:49.699Z,14.64
2022-08-22T03:16:49.450Z,14.62
2022-08-22T03:17:49.430Z,14.64
2022-08-22T03:18:49.422Z,14.62
2022-08-22T03:19:49.419Z,14.61
2022-08-22T03:20:49.403Z,14.60
2022-08-22T03:21:49.901Z,14.58
2022-08-22T03:22:49.381Z,14.58
2022-08-22T03:23:49.372Z,14.57
2022-08-22T03:24:49.364Z,14.55
2022-08-22T03:25:49.352Z,14.54
2022-08-22T03:26:49.343Z,14.52
2022-08-22T03:27:50.077Z,14.52
2022-08-22T03:28:59.945Z,14.50
2022-08-22T03:29:50.294Z,14.47
2022-08-22T03:30:49.296Z,14.46
2022-08-22T03:31:49.275Z,14.45
2022-08-22T03:32:49.276Z,14.42
2022-08-22T03:33:49.255Z,14.40
2022-08-22T03:34:49.359Z,14.39
2022-08-22T03:35:49.237Z,14.37
2022-08-22T03:36:49.244Z,14.39
2022-08-22T03:37:49.215Z,14.37
2022-08-22T03:38:49.205Z,14.33
2022-08-22T03:39:49.250Z,14.33
2022-08-22T03:40:49.190Z,14.32
2022-08-22T03:41:49.167Z,14.32
2022-08-22T03:42:49.176Z,14.27
2022-08-22T03:43:49.148Z,14.28
2022-08-22T03:44:49.148Z,14.25
2022-08-22T03:45:49.131Z,14.24
2022-08-22T03:46:49.137Z,14.21
2022-08-22T03:47:49.100Z,14.21
2022-08-22T03:48:49.101Z,14.18
2022-08-22T03:49:49.088Z,14.17
2022-08-22T03:50:49.081Z,14.14
2022-08-22T03:51:50.087Z,14.12
2022-08-22T03:52:49.052Z,14.12
2022-08-22T03:53:49.461Z,14.10
2022-08-22T03:54:49.039Z,14.10
2022-08-22T03:55:49.042Z,14.07
2022-08-22T03:56:49.005Z,14.03
2022-08-22T03:57:50.031Z,14.06
2022-08-22T03:58:48.983Z,14.06
2022-08-22T03:59:48.991Z,14.03
2022-08-22T04:00:49.044Z,13.99
2022-08-22T04:01:48.963Z,13.97
2022-08-22T04:02:48.982Z,13.97
2022-08-22T04:03:48.943Z,13.95
2022-08-22T04:04:48.924Z,13.95
2022-08-22T04:05:52.798Z,13.91
2022-08-22T04:06:48.916Z,13.89
2022-08-22T04:07:48.898Z,13.89
2022-08-22T04:08:48.889Z,13.88
2022-08-22T04:09:48.877Z,13.85
2022-08-22T04:10:48.854Z,13.85
2022-08-22T04:11:48.856Z,13.84
2022-08-22T04:12:48.869Z,13.85
2022-08-22T04:13:48.839Z,13.84
2022-08-22T04:14:48.808Z,13.82
2022-08-22T04:15:48.808Z,13.82
2022-08-22T04:16:48.788Z,13.79
2022-08-22T04:17:49.597Z,13.78
2022-08-22T04:18:48.759Z,13.77
2022-08-22T04:19:48.760Z,13.77
2022-08-22T04:20:48.751Z,13.75
2022-08-22T04:21:48.740Z,13.73
2022-08-22T04:22:48.731Z,13.70
2022-08-22T04:23:48.719Z,13.73
2022-08-22T04:24:52.477Z,13.70
2022-08-22T04:25:48.701Z,13.67
2022-08-22T04:26:48.682Z,13.69
2022-08-22T04:27:48.685Z,13.67
2022-08-22T04:28:48.663Z,13.63
2022-08-22T04:29:48.653Z,13.64
2022-08-22T04:30:48.642Z,13.66
2022-08-22T04:31:48.673Z,13.64
2022-08-22T04:32:48.614Z,13.67
2022-08-22T04:33:48.612Z,13.66
2022-08-22T04:34:48.608Z,13.67
2022-08-22T04:35:48.603Z,13.71
2022-08-22T04:36:48.574Z,13.70
2022-08-22T04:37:48.566Z,13.71
2022-08-22T04:38:48.595Z,13.69
2022-08-22T04:39:48.599Z,13.70
2022-08-22T04:40:48.545Z,13.70
2022-08-22T04:41:48.556Z,13.70
2022-08-22T04:42:48.507Z,13.71
2022-08-22T04:43:48.523Z,13.70
2022-08-22T04:44:48.488Z,13.71
2022-08-22T04:45:48.490Z,13.71
2022-08-22T04:46:48.476Z,13.70
2022-08-22T04:47:52.719Z,13.71
2022-08-22T04:48:50.267Z,13.71
2022-08-22T04:49:48.457Z,13.73
2022-08-22T04:50:48.419Z,13.73
2022-08-22T04:51:48.428Z,13.77
2022-08-22T04:52:48.400Z,13.78
2022-08-22T04:53:49.190Z,13.78
2022-08-22T04:54:48.381Z,13.81
2022-08-22T04:55:48.372Z,13.81
2022-08-22T04:56:48.368Z,13.79
2022-08-22T04:57:48.370Z,13.81
2022-08-22T04:58:48.334Z,13.82
2022-08-22T04:59:48.339Z,13.82
2022-08-22T05:00:48.319Z,13.85
2022-08-22T05:01:48.361Z,13.85
2022-08-22T05:02:48.352Z,13.87
2022-08-22T05:03:48.301Z,13.87
2022-08-22T05:04:48.274Z,13.88
2022-08-22T05:05:48.274Z,13.91
2022-08-22T05:06:48.263Z,13.95
2022-08-22T05:07:48.248Z,13.96
2022-08-22T05:08:48.408Z,13.99
2022-08-22T05:09:49.232Z,14.00
2022-08-22T05:10:48.206Z,14.00
2022-08-22T05:11:48.212Z,14.02
2022-08-22T05:12:48.185Z,14.03
2022-08-22T05:13:48.206Z,14.06
2022-08-22T05:14:48.168Z,14.09
2022-08-22T05:15:48.165Z,14.12
2022-08-22T05:16:48.144Z,14.12
2022-08-22T05:17:48.138Z,14.15
2022-08-22T05:18:48.137Z,14.17
2022-08-22T05:19:48.127Z,14.17
2022-08-22T05:20:49.087Z,14.18
2022-08-22T05:21:48.208Z,14.20
2022-08-22T05:22:48.079Z,14.21
2022-08-22T05:23:48.083Z,14.24
2022-08-22T05:24:48.089Z,14.25
2022-08-22T05:25:48.059Z,14.24
2022-08-22T05:26:48.051Z,14.25
2022-08-22T05:27:48.031Z,14.28
2022-08-22T05:28:52.899Z,14.28
2022-08-22T05:29:48.020Z,14.28
2022-08-22T05:30:47.991Z,14.29
2022-08-22T05:31:47.991Z,14.35
2022-08-22T05:32:47.972Z,14.46
2022-08-22T05:33:47.972Z,14.55
2022-08-22T05:34:47.953Z,14.69
2022-08-22T05:35:50.802Z,14.78
2022-08-22T05:36:47.932Z,14.89
2022-08-22T05:37:47.933Z,15.02
2022-08-22T05:38:47.903Z,15.11
2022-08-22T05:39:47.945Z,15.14
2022-08-22T05:40:47.896Z,15.23
2022-08-22T05:41:47.881Z,15.27
2022-08-22T05:42:47.864Z,15.29
2022-08-22T05:43:47.865Z,15.29
2022-08-22T05:44:47.845Z,15.32
2022-08-22T05:45:47.854Z,15.36
2022-08-22T05:46:47.816Z,15.36
2022-08-22T05:47:47.816Z,15.39
2022-08-22T05:48:47.798Z,15.41
2022-08-22T05:49:47.806Z,15.43
2022-08-22T05:50:50.825Z,15.49
2022-08-22T05:51:47.777Z,15.51
2022-08-22T05:52:47.757Z,15.53
2022-08-22T05:53:47.769Z,15.59
2022-08-22T05:54:47.729Z,15.62
2022-08-22T05:55:47.829Z,15.67
2022-08-22T05:56:47.716Z,15.74
2022-08-22T05:57:47.709Z,15.78
2022-08-22T05:58:47.690Z,15.83
2022-08-22T05:59:47.700Z,15.84
2022-08-22T06:00:47.675Z,15.89
2022-08-22T06:01:47.738Z,15.93
2022-08-22T06:02:48.458Z,15.93
2022-08-22T06:03:47.796Z,15.94
2022-08-22T06:04:47.630Z,16.04
2022-08-22T06:05:47.632Z,16.08
2022-08-22T06:06:47.610Z,16.14
2022-08-22T06:07:47.593Z,16.20
2022-08-22T06:08:47.590Z,16.23
2022-08-22T06:09:47.583Z,16.25
2022-08-22T06:10:48.262Z,16.28
2022-08-22T06:11:51.608Z,16.33
2022-08-22T06:12:47.547Z,16.39
2022-08-22T06:13:47.533Z,16.45
2022-08-22T06:14:47.514Z,16.48
2022-08-22T06:15:48.185Z,16.50
2022-08-22T06:16:48.845Z,16.53
2022-08-22T06:17:47.486Z,16.56
2022-08-22T06:18:47.497Z,16.56
2022-08-22T06:19:47.487Z,16.58
2022-08-22T06:20:47.455Z,16.60
2022-08-22T06:21:47.451Z,16.61
2022-08-22T06:22:47.427Z,16.63
2022-08-22T06:23:47.418Z,16.66
2022-08-22T06:24:47.407Z,16.66
2022-08-22T06:25:47.398Z,16.70
2022-08-22T06:26:48.926Z,16.75
2022-08-22T06:27:47.379Z,16.82
2022-08-22T06:28:55.035Z,16.88
2022-08-22T06:29:48.358Z,16.91
2022-08-22T06:30:47.340Z,16.96
2022-08-22T06:31:47.368Z,17.01
2022-08-22T06:32:59.298Z,17.04
2022-08-22T06:33:48.318Z,17.07
2022-08-22T06:34:47.303Z,17.11
2022-08-22T06:35:47.827Z,17.12
2022-08-22T06:36:47.297Z,17.15
2022-08-22T06:37:47.270Z,17.19
2022-08-22T06:38:47.254Z,17.25
2022-08-22T06:39:47.273Z,17.30
2022-08-22T06:40:47.234Z,17.33
2022-08-22T06:41:47.235Z,17.36
2022-08-22T06:42:47.216Z,17.38
2022-08-22T06:43:47.204Z,17.41
2022-08-22T06:44:47.297Z,17.44
2022-08-22T06:45:47.185Z,17.46
2022-08-22T06:46:47.175Z,17.51
2022-08-22T06:47:49.829Z,17.54
2022-08-22T06:48:47.146Z,17.56
2022-08-22T06:49:47.267Z,17.59
2022-08-22T06:50:47.125Z,17.64
2022-08-22T06:51:47.129Z,17.64
2022-08-22T06:52:47.107Z,17.68
2022-08-22T06:53:48.370Z,17.70
2022-08-22T06:54:47.083Z,17.72
2022-08-22T06:55:47.076Z,17.72
2022-08-22T06:56:47.060Z,17.77
2022-08-22T06:57:47.068Z,17.79
2022-08-22T06:58:47.040Z,17.84
2022-08-22T06:59:47.037Z,17.89
2022-08-22T07:00:58.796Z,17.92
2022-08-22T07:01:48.053Z,17.99
2022-08-22T07:02:46.999Z,18.03
2022-08-22T07:03:47.046Z,18.11
2022-08-22T07:04:46.971Z,18.14
2022-08-22T07:05:46.971Z,18.18
2022-08-22T07:06:46.964Z,18.23
2022-08-22T07:07:46.943Z,18.27
2022-08-22T07:08:47.753Z,18.36
2022-08-22T07:09:46.924Z,18.42
2022-08-22T07:10:46.910Z,18.47
2022-08-22T07:11:47.003Z,18.50
2022-08-22T07:12:47.023Z,18.52
2022-08-22T07:13:46.887Z,18.54
2022-08-22T07:14:46.874Z,18.57
2022-08-22T07:15:46.863Z,18.58
2022-08-22T07:16:46.854Z,18.62
2022-08-22T07:17:46.864Z,18.65
2022-08-22T07:18:46.819Z,18.69
2022-08-22T07:19:47.626Z,18.70
2022-08-22T07:20:46.811Z,18.73
2022-08-22T07:21:46.798Z,18.75
2022-08-22T07:22:46.798Z,18.80
2022-08-22T07:23:46.879Z,18.82
2022-08-22T07:24:46.759Z,18.88
2022-08-22T07:25:46.763Z,18.91
2022-08-22T07:26:46.740Z,18.95
2022-08-22T07:27:48.967Z,19.04
2022-08-22T07:28:51.120Z,19.10
2022-08-22T07:29:47.728Z,19.18
2022-08-22T07:30:46.690Z,19.23
2022-08-22T07:31:46.702Z,19.28
2022-08-22T07:32:46.670Z,19.37
2022-08-22T07:33:46.913Z,19.40
2022-08-22T07:34:46.652Z,19.44
2022-08-22T07:35:53.438Z,19.55
2022-08-22T07:36:47.631Z,19.62
2022-08-22T07:37:46.625Z,19.68
2022-08-22T07:38:46.745Z,19.77
2022-08-22T07:39:46.670Z,19.86
2022-08-22T07:40:46.592Z,19.96
2022-08-22T07:41:46.581Z,20.03
2022-08-22T07:42:47.659Z,19.99
2022-08-22T07:43:46.567Z,19.95
2022-08-22T07:44:46.555Z,19.99
2022-08-22T07:45:46.545Z,20.05
2022-08-22T07:46:46.540Z,20.14
2022-08-22T07:47:49.637Z,20.17
2022-08-22T07:49:06.165Z,20.23
2022-08-22T07:49:49.618Z,20.28
2022-08-22T07:50:46.512Z,20.33
2022-08-22T07:51:46.477Z,20.39
2022-08-22T07:52:46.479Z,20.47
2022-08-22T07:53:46.449Z,20.52
2022-08-22T07:54:46.437Z,20.52
2022-08-22T07:55:49.452Z,20.57
2022-08-22T07:56:46.439Z,20.64
2022-08-22T07:57:46.408Z,20.69
2022-08-22T07:58:46.394Z,20.77
2022-08-22T07:59:46.381Z,20.88
2022-08-22T08:00:46.770Z,20.95
2022-08-22T08:01:46.411Z,20.99
2022-08-22T08:02:46.351Z,21.06
2022-08-22T08:03:46.333Z,21.07
2022-08-22T08:04:46.323Z,21.10
2022-08-22T08:05:46.320Z,21.12
2022-08-22T08:06:46.301Z,21.09
2022-08-22T08:07:46.324Z,21.07
2022-08-22T08:08:46.276Z,21.06
2022-08-22T08:09:46.267Z,21.09
2022-08-22T08:10:46.266Z,21.17
2022-08-22T08:11:46.248Z,21.37
2022-08-22T08:12:58.005Z,21.52
2022-08-22T08:13:47.227Z,21.64
2022-08-22T08:14:46.218Z,21.59
2022-08-22T08:15:46.205Z,21.54
2022-08-22T08:16:46.198Z,21.47
2022-08-22T08:17:46.188Z,21.46
2022-08-22T08:18:46.178Z,21.42
2022-08-22T08:19:46.179Z,21.37
2022-08-22T08:20:46.161Z,21.35
2022-08-22T08:21:46.140Z,21.34
2022-08-22T08:22:46.149Z,21.29
2022-08-22T08:23:46.120Z,21.29
2022-08-22T08:24:46.922Z,21.34
2022-08-22T08:25:46.120Z,21.35
2022-08-22T08:26:46.092Z,21.44
2022-08-22T08:27:50.301Z,21.47
2022-08-22T08:28:47.210Z,21.47
2022-08-22T08:29:46.052Z,21.46
2022-08-22T08:30:46.059Z,21.42
2022-08-22T08:31:46.035Z,21.53
2022-08-22T08:32:46.034Z,21.71
2022-08-22T08:33:46.825Z,21.83
2022-08-22T08:34:46.008Z,21.96
2022-08-22T08:36:02.540Z,22.15
2022-08-22T08:36:46.987Z,22.37
2022-08-22T08:37:46.096Z,22.55
2022-08-22T08:38:45.976Z,22.68
2022-08-22T08:39:45.970Z,22.82
2022-08-22T08:40:45.938Z,22.95
2022-08-22T08:41:45.928Z,23.02
2022-08-22T08:42:45.950Z,23.10
2022-08-22T08:43:45.918Z,23.16
2022-08-22T08:44:45.897Z,23.22
2022-08-22T08:45:45.879Z,23.33
2022-08-22T08:46:51.805Z,23.46
2022-08-22T08:47:46.860Z,23.46
2022-08-22T08:48:45.860Z,23.36
2022-08-22T08:49:45.866Z,23.39
2022-08-22T08:50:45.854Z,23.50
2022-08-22T08:51:45.818Z,23.60
2022-08-22T08:52:48.181Z,23.68
2022-08-22T08:53:46.802Z,23.76
2022-08-22T08:54:45.790Z,23.87
2022-08-22T08:55:45.801Z,23.87
2022-08-22T08:56:47.285Z,23.85
2022-08-22T08:57:45.744Z,23.87
2022-08-22T08:58:45.744Z,23.87
2022-08-22T08:59:45.736Z,23.83
2022-08-22T09:00:45.850Z,23.85
2022-08-22T09:01:45.781Z,23.93
2022-08-22T09:02:45.704Z,23.98
2022-08-22T09:03:45.686Z,24.08
2022-08-22T09:04:45.675Z,24.12
2022-08-22T09:05:46.473Z,24.20
2022-08-22T09:06:52.691Z,24.18
2022-08-22T09:07:46.646Z,24.20
2022-08-22T09:08:45.638Z,24.21
2022-08-22T09:09:45.628Z,24.28
2022-08-22T09:10:46.618Z,24.18
2022-08-22T09:11:45.600Z,24.02
2022-08-22T09:13:46.587Z,24.16
2022-08-22T09:14:45.873Z,24.27
2022-08-22T09:15:58.516Z,24.28
2022-08-22T09:17:46.552Z,24.16
2022-08-22T09:18:45.731Z,23.91
2022-08-22T09:19:45.521Z,23.69
2022-08-22T09:20:45.512Z,23.68
2022-08-22T09:21:45.502Z,23.80
2022-08-22T09:22:50.596Z,23.97
2022-08-22T09:23:46.575Z,24.18
2022-08-22T09:24:46.482Z,24.13
2022-08-22T09:25:45.453Z,23.85
2022-08-22T09:26:45.453Z,23.55
2022-08-22T09:27:45.463Z,23.47
2022-08-22T09:28:45.425Z,23.38
2022-08-22T09:29:54.447Z,23.46
2022-08-22T09:30:46.414Z,23.57
2022-08-22T09:31:48.182Z,23.51
2022-08-22T09:32:46.389Z,23.58
2022-08-22T09:33:45.455Z,23.78
2022-08-22T09:34:45.358Z,23.84
2022-08-22T09:35:45.349Z,23.80
2022-08-22T09:36:45.339Z,23.98
2022-08-22T09:37:45.328Z,24.18
2022-08-22T09:38:47.713Z,24.25
2022-08-22T09:39:45.319Z,24.40
2022-08-22T09:40:16.254Z,24.28
2022-08-22T09:40:45.290Z,24.45
2022-08-22T09:41:45.281Z,24.58
2022-08-22T09:42:46.438Z,24.69
2022-08-22T09:43:48.604Z,24.81
2022-08-22T09:44:45.252Z,24.91
2022-08-22T09:45:45.240Z,24.99
2022-08-22T09:46:45.232Z,25.03
2022-08-22T09:47:45.216Z,25.10
2022-08-22T09:48:45.212Z,25.13
2022-08-22T09:49:45.294Z,25.17
2022-08-22T09:50:45.216Z,25.28
2022-08-22T09:51:45.174Z,25.33
2022-08-22T09:52:45.176Z,25.35
2022-08-22T09:53:45.147Z,25.40
2022-08-22T09:54:45.147Z,25.50
2022-08-22T09:55:45.148Z,25.52
2022-08-22T09:56:45.128Z,25.60
2022-08-22T09:57:45.127Z,25.60
2022-08-22T09:58:45.100Z,25.65
2022-08-22T09:59:45.087Z,25.61
2022-08-22T10:00:45.186Z,25.64
2022-08-22T10:01:45.071Z,25.60
2022-08-22T10:02:45.059Z,25.62
2022-08-22T10:03:46.069Z,25.67
2022-08-22T10:04:45.170Z,25.64
2022-08-22T10:05:45.116Z,25.39
2022-08-22T10:06:45.013Z,25.18
2022-08-22T10:07:45.002Z,25.14
2022-08-22T10:08:46.239Z,25.18
2022-08-22T10:09:46.338Z,25.20
2022-08-22T10:10:44.973Z,25.30
2022-08-22T10:11:44.963Z,25.36
2022-08-22T10:12:44.955Z,25.43
2022-08-22T10:13:44.938Z,25.42
2022-08-22T10:14:50.417Z,25.52
2022-08-22T10:15:45.914Z,25.67
2022-08-22T10:16:44.964Z,25.75
2022-08-22T10:17:44.907Z,25.87
2022-08-22T10:18:53.859Z,26.05
2022-08-22T10:19:45.867Z,26.17
2022-08-22T10:20:44.867Z,26.23
2022-08-22T10:21:44.857Z,26.30
2022-08-22T10:22:44.848Z,26.37
2022-08-22T10:23:45.907Z,26.39
2022-08-22T10:24:44.828Z,26.40
2022-08-22T10:25:44.811Z,26.33
2022-08-22T10:26:44.811Z,26.29
2022-08-22T10:27:45.131Z,26.30
2022-08-22T10:28:44.789Z,26.30
2022-08-22T10:29:44.771Z,26.23
2022-08-22T10:30:44.790Z,26.35
2022-08-22T10:31:58.580Z,26.48
2022-08-22T10:32:45.744Z,26.40
2022-08-22T10:33:44.727Z,26.25
2022-08-22T10:34:45.525Z,26.20
2022-08-22T10:35:44.715Z,26.23
2022-08-22T10:36:44.704Z,26.28
2022-08-22T10:37:45.925Z,26.17
2022-08-22T10:38:46.929Z,26.23
2022-08-22T10:39:44.710Z,26.21
2022-08-22T10:40:44.687Z,26.26
2022-08-22T10:41:45.534Z,26.37
2022-08-22T10:42:44.638Z,26.35
2022-08-22T10:43:44.619Z,26.06
2022-08-22T10:44:44.629Z,25.80
2022-08-22T10:45:44.606Z,25.76
2022-08-22T10:46:44.607Z,25.77
2022-08-22T10:47:44.588Z,25.72
2022-08-22T10:48:44.570Z,25.62
2022-08-22T10:49:44.571Z,25.64
2022-08-22T10:50:44.566Z,25.67
2022-08-22T10:51:44.540Z,25.75
2022-08-22T10:52:44.541Z,25.62
2022-08-22T10:53:44.522Z,25.57
2022-08-22T10:54:44.648Z,25.50
2022-08-22T10:55:44.515Z,25.58
2022-08-22T10:56:44.490Z,25.64
2022-08-22T10:57:44.472Z,25.77
2022-08-22T10:58:44.592Z,25.77
2022-08-22T10:59:44.475Z,25.85
2022-08-22T11:00:46.097Z,25.98
2022-08-22T11:01:44.463Z,26.20
2022-08-22T11:02:44.900Z,26.35
2022-08-22T11:03:44.460Z,26.36
2022-08-22T11:04:44.924Z,26.40
2022-08-22T11:05:44.461Z,26.44
2022-08-22T11:06:45.387Z,26.43
2022-08-22T11:07:44.572Z,26.52
2022-08-22T11:08:44.374Z,26.66
2022-08-22T11:09:44.349Z,26.82
2022-08-22T11:10:44.359Z,26.94
2022-08-22T11:11:44.332Z,27.06
2022-08-22T11:12:44.492Z,27.17
2022-08-22T11:13:44.321Z,27.14
2022-08-22T11:14:44.781Z,27.17
2022-08-22T11:15:44.289Z,27.25
2022-08-22T11:16:44.312Z,27.39
2022-08-22T11:17:54.130Z,27.46
2022-08-22T11:18:58.036Z,27.60
2022-08-22T11:19:45.248Z,27.72
2022-08-22T11:20:44.242Z,27.54
2022-08-22T11:21:44.262Z,27.37
2022-08-22T11:22:44.224Z,27.44
2022-08-22T11:23:44.205Z,27.43
2022-08-22T11:24:46.635Z,27.55
2022-08-22T11:25:45.197Z,27.69
2022-08-22T11:26:47.671Z,27.85
2022-08-22T11:27:44.168Z,28.02
2022-08-22T11:28:44.157Z,28.18
2022-08-22T11:29:44.262Z,28.24
2022-08-22T11:30:44.939Z,28.25
2022-08-22T11:31:47.178Z,28.39
2022-08-22T11:32:45.119Z,28.44
2022-08-22T11:33:46.950Z,28.39
2022-08-22T11:34:44.829Z,28.17
2022-08-22T11:35:44.080Z,27.90
2022-08-22T11:36:46.386Z,27.78
2022-08-22T11:37:44.098Z,27.60
2022-08-22T11:38:44.050Z,27.36
2022-08-22T11:39:44.076Z,27.29
2022-08-22T11:40:44.033Z,27.41
2022-08-22T11:41:44.021Z,27.57
2022-08-22T11:42:47.398Z,27.75
2022-08-22T11:43:44.005Z,27.94
2022-08-22T11:44:50.956Z,28.11
2022-08-22T11:45:44.972Z,28.27
2022-08-22T11:46:43.964Z,28.37
2022-08-22T11:47:43.955Z,28.43
2022-08-22T11:48:47.374Z,28.15
2022-08-22T11:49:43.966Z,27.85
2022-08-22T11:50:44.021Z,27.55
2022-08-22T11:51:43.906Z,27.10
2022-08-22T11:52:43.903Z,27.09
2022-08-22T11:53:44.889Z,27.00
2022-08-22T11:54:43.878Z,27.18
2022-08-22T11:55:43.908Z,27.50
2022-08-22T11:56:45.170Z,27.60
2022-08-22T11:57:44.395Z,27.65
2022-08-22T11:58:43.860Z,27.88
2022-08-22T11:59:43.821Z,28.14
2022-08-22T12:00:43.819Z,28.40
2022-08-22T12:01:43.836Z,28.56
2022-08-22T12:02:43.793Z,28.71
2022-08-22T12:03:43.781Z,28.81
2022-08-22T12:04:44.101Z,28.67
2022-08-22T12:05:43.766Z,28.66
2022-08-22T12:06:43.763Z,28.59
2022-08-22T12:07:47.425Z,28.55
2022-08-22T12:08:44.732Z,28.49
2022-08-22T12:09:43.716Z,28.49
2022-08-22T12:10:43.707Z,28.15
2022-08-22T12:11:43.708Z,28.11
2022-08-22T12:12:43.687Z,27.75
2022-08-22T12:13:43.676Z,27.72
2022-08-22T12:14:43.675Z,27.63
2022-08-22T12:15:43.657Z,27.49
2022-08-22T12:16:45.162Z,27.51
2022-08-22T12:17:55.896Z,27.54
2022-08-22T12:18:45.082Z,27.82
2022-08-22T12:20:05.759Z,28.11
2022-08-22T12:20:45.370Z,27.96
2022-08-22T12:21:43.588Z,27.51
2022-08-22T12:22:44.441Z,27.47
2022-08-22T12:23:49.289Z,27.59
2022-08-22T12:24:44.552Z,27.69
2022-08-22T12:25:44.551Z,27.72
2022-08-22T12:26:43.541Z,27.55
2022-08-22T12:27:48.178Z,27.78
2022-08-22T12:28:44.513Z,27.82
2022-08-22T12:29:44.904Z,27.32
2022-08-22T12:30:43.493Z,26.84
2022-08-22T12:31:43.488Z,26.72
2022-08-22T12:32:44.016Z,26.69
2022-08-22T12:33:43.462Z,26.99
2022-08-22T12:34:43.447Z,27.24
2022-08-22T12:35:43.456Z,27.31
2022-08-22T12:36:43.427Z,27.43
2022-08-22T12:37:53.184Z,27.59
2022-08-22T12:38:44.409Z,27.54
2022-08-22T12:39:43.485Z,27.54
2022-08-22T12:40:43.780Z,27.36
2022-08-22T12:41:46.498Z,27.17
2022-08-22T12:42:43.366Z,26.95
2022-08-22T12:43:43.384Z,26.82
2022-08-22T12:44:43.402Z,26.48
2022-08-22T12:45:43.331Z,26.12
2022-08-22T12:46:47.193Z,25.52
2022-08-22T12:47:43.337Z,25.20
2022-08-22T12:48:43.295Z,25.09
2022-08-22T12:49:49.818Z,25.57